sensor_id;sensor_type;location;lat;lon;timestamp;P1;durP1;ratioP1;P2;durP2;ratioP2
59872;SDS011;50750;51.636;4.948;2022-12-18T00:01:03;30.40;;;15.80;;
59872;SDS011;50750;51.636;4.948;2022-12-18T00:03:42;31.80;;;15.80;;
59872;SDS011;50750;51.636;4.948;2022-12-18T00:06:08;33.60;;;15.90;;
59872;SDS011;50750;51.636;4.948;2022-12-18T00:08:35;30.10;;;14.70;;
59872;SDS011;50750;51.636;4.948;2022-12-18T00:11:05;28.70;;;14.80;;
59872;SDS011;50750;51.636;4.948;2022-12-18T00:13:34;31.90;;;15.00;;
59872;SDS011;50750;51.636;4.948;2022-12-18T00:16:01;30.90;;;14.70;;
59872;SDS011;50750;51.636;4.948;2022-12-18T00:18:29;30.60;;;15.20;;
59872;SDS011;50750;51.636;4.948;2022-12-18T00:20:57;29.90;;;14.10;;
59872;SDS011;50750;51.636;4.948;2022-12-18T00:23:25;28.70;;;14.60;;
59872;SDS011;50750;51.636;4.948;2022-12-18T00:25:52;32.80;;;15.10;;
59872;SDS011;50750;51.636;4.948;2022-12-18T00:28:18;32.80;;;15.80;;
59872;SDS011;50750;51.636;4.948;2022-12-18T00:30:44;31.60;;;15.60;;
59872;SDS011;50750;51.636;4.948;2022-12-18T00:33:10;32.80;;;15.30;;
59872;SDS011;50750;51.636;4.948;2022-12-18T00:35:36;31.90;;;15.00;;
59872;SDS011;50750;51.636;4.948;2022-12-18T00:38:02;32.30;;;14.90;;
59872;SDS011;50750;51.636;4.948;2022-12-18T00:40:28;33.20;;;15.20;;
59872;SDS011;50750;51.636;4.948;2022-12-18T00:42:54;32.30;;;14.90;;
59872;SDS011;50750;51.636;4.948;2022-12-18T00:45:26;32.40;;;16.10;;
59872;SDS011;50750;51.636;4.948;2022-12-18T00:47:55;31.60;;;14.90;;
59872;SDS011;50750;51.636;4.948;2022-12-18T00:50:22;29.90;;;14.70;;
59872;SDS011;50750;51.636;4.948;2022-12-18T00:52:49;28.30;;;14.40;;
59872;SDS011;50750;51.636;4.948;2022-12-18T00:55:16;33.80;;;15.50;;
59872;SDS011;50750;51.636;4.948;2022-12-18T00:57:42;31.10;;;15.20;;
59872;SDS011;50750;51.636;4.948;2022-12-18T01:00:11;32.60;;;15.20;;
59872;SDS011;50750;51.636;4.948;2022-12-18T01:02:42;30.90;;;15.30;;
59872;SDS011;50750;51.636;4.948;2022-12-18T01:05:10;34.30;;;15.30;;
59872;SDS011;50750;51.636;4.948;2022-12-18T01:07:38;28.20;;;14.90;;
59872;SDS011;50750;51.636;4.948;2022-12-18T01:10:08;28.70;;;14.30;;
59872;SDS011;50750;51.636;4.948;2022-12-18T01:12:39;29.80;;;13.90;;
59872;SDS011;50750;51.636;4.948;2022-12-18T01:15:16;29.30;;;14.40;;
59872;SDS011;50750;51.636;4.948;2022-12-18T01:20:10;26.60;;;13.40;;
59872;SDS011;50750;51.636;4.948;2022-12-18T01:22:36;31.40;;;14.10;;
59872;SDS011;50750;51.636;4.948;2022-12-18T01:25:03;27.30;;;13.70;;
59872;SDS011;50750;51.636;4.948;2022-12-18T01:27:30;26.80;;;13.20;;
59872;SDS011;50750;51.636;4.948;2022-12-18T01:29:56;30.90;;;14.50;;
59872;SDS011;50750;51.636;4.948;2022-12-18T01:32:22;29.50;;;15.00;;
59872;SDS011;50750;51.636;4.948;2022-12-18T01:34:48;29.10;;;15.00;;
59872;SDS011;50750;51.636;4.948;2022-12-18T01:37:14;31.70;;;15.00;;
59872;SDS011;50750;51.636;4.948;2022-12-18T01:39:40;28.60;;;14.20;;
59872;SDS011;50750;51.636;4.948;2022-12-18T01:42:11;28.90;;;14.20;;
59872;SDS011;50750;51.636;4.948;2022-12-18T01:50:15;27.70;;;13.80;;
59872;SDS011;50750;51.636;4.948;2022-12-18T01:52:57;27.20;;;13.80;;
59872;SDS011;50750;51.636;4.948;2022-12-18T01:55:31;29.00;;;14.00;;
59872;SDS011;50750;51.636;4.948;2022-12-18T01:58:05;27.90;;;13.60;;
59872;SDS011;50750;51.636;4.948;2022-12-18T02:00:32;30.00;;;13.70;;
59872;SDS011;50750;51.636;4.948;2022-12-18T02:02:59;27.60;;;13.60;;
59872;SDS011;50750;51.636;4.948;2022-12-18T02:05:34;24.40;;;13.10;;
59872;SDS011;50750;51.636;4.948;2022-12-18T02:16:43;24.40;;;13.10;;
59872;SDS011;50750;51.636;4.948;2022-12-18T02:19:37;23.40;;;12.70;;
59872;SDS011;50750;51.636;4.948;2022-12-18T02:27:37;26.10;;;13.00;;
59872;SDS011;50750;51.636;4.948;2022-12-18T02:30:05;26.00;;;12.90;;
59872;SDS011;50750;51.636;4.948;2022-12-18T02:32:40;27.20;;;13.80;;
59872;SDS011;50750;51.636;4.948;2022-12-18T02:35:10;24.20;;;13.30;;
59872;SDS011;50750;51.636;4.948;2022-12-18T02:37:43;23.30;;;13.00;;
59872;SDS011;50750;51.636;4.948;2022-12-18T02:40:11;26.60;;;13.40;;
59872;SDS011;50750;51.636;4.948;2022-12-18T02:42:39;24.50;;;12.90;;
59872;SDS011;50750;51.636;4.948;2022-12-18T02:45:05;23.60;;;12.40;;
59872;SDS011;50750;51.636;4.948;2022-12-18T02:47:32;26.00;;;12.70;;
59872;SDS011;50750;51.636;4.948;2022-12-18T02:57:54;23.80;;;13.00;;
59872;SDS011;50750;51.636;4.948;2022-12-18T03:00:25;24.00;;;12.90;;
59872;SDS011;50750;51.636;4.948;2022-12-18T03:03:14;21.50;;;11.80;;
59872;SDS011;50750;51.636;4.948;2022-12-18T03:05:53;21.20;;;11.60;;
59872;SDS011;50750;51.636;4.948;2022-12-18T03:08:23;24.20;;;12.80;;
59872;SDS011;50750;51.636;4.948;2022-12-18T03:10:57;21.20;;;11.10;;
59872;SDS011;50750;51.636;4.948;2022-12-18T03:13:28;23.10;;;11.70;;
59872;SDS011;50750;51.636;4.948;2022-12-18T03:16:00;22.50;;;12.60;;
59872;SDS011;50750;51.636;4.948;2022-12-18T03:21:04;22.30;;;12.00;;
59872;SDS011;50750;51.636;4.948;2022-12-18T03:23:36;20.80;;;11.40;;
59872;SDS011;50750;51.636;4.948;2022-12-18T03:26:09;20.70;;;11.50;;
59872;SDS011;50750;51.636;4.948;2022-12-18T03:28:41;22.00;;;12.00;;
59872;SDS011;50750;51.636;4.948;2022-12-18T03:31:11;21.90;;;11.90;;
59872;SDS011;50750;51.636;4.948;2022-12-18T03:36:08;19.40;;;11.70;;
59872;SDS011;50750;51.636;4.948;2022-12-18T03:38:34;22.70;;;12.20;;
59872;SDS011;50750;51.636;4.948;2022-12-18T03:43:32;19.70;;;11.60;;
59872;SDS011;50750;51.636;4.948;2022-12-18T03:46:11;21.00;;;11.10;;
59872;SDS011;50750;51.636;4.948;2022-12-18T03:49:23;21.70;;;11.80;;
59872;SDS011;50750;51.636;4.948;2022-12-18T03:51:42;22.80;;;11.70;;
59872;SDS011;50750;51.636;4.948;2022-12-18T03:54:09;20.20;;;10.90;;
59872;SDS011;50750;51.636;4.948;2022-12-18T03:56:39;23.10;;;11.20;;
59872;SDS011;50750;51.636;4.948;2022-12-18T03:59:09;21.40;;;11.20;;
59872;SDS011;50750;51.636;4.948;2022-12-18T04:01:39;22.00;;;11.70;;
59872;SDS011;50750;51.636;4.948;2022-12-18T04:04:08;19.20;;;11.10;;
59872;SDS011;50750;51.636;4.948;2022-12-18T04:06:36;19.50;;;10.80;;
59872;SDS011;50750;51.636;4.948;2022-12-18T04:09:03;19.30;;;10.90;;
59872;SDS011;50750;51.636;4.948;2022-12-18T04:11:30;19.40;;;10.90;;
59872;SDS011;50750;51.636;4.948;2022-12-18T04:13:56;23.80;;;11.70;;
59872;SDS011;50750;51.636;4.948;2022-12-18T04:16:24;18.40;;;10.50;;
59872;SDS011;50750;51.636;4.948;2022-12-18T04:18:51;17.80;;;10.80;;
59872;SDS011;50750;51.636;4.948;2022-12-18T04:21:17;17.50;;;10.30;;
59872;SDS011;50750;51.636;4.948;2022-12-18T04:23:43;19.50;;;11.00;;
59872;SDS011;50750;51.636;4.948;2022-12-18T04:26:09;18.20;;;10.30;;
59872;SDS011;50750;51.636;4.948;2022-12-18T04:28:35;19.70;;;10.50;;
59872;SDS011;50750;51.636;4.948;2022-12-18T04:31:01;19.00;;;10.30;;
59872;SDS011;50750;51.636;4.948;2022-12-18T04:33:27;18.30;;;10.60;;
59872;SDS011;50750;51.636;4.948;2022-12-18T04:35:53;18.00;;;10.40;;
59872;SDS011;50750;51.636;4.948;2022-12-18T04:38:19;17.10;;;10.00;;
59872;SDS011;50750;51.636;4.948;2022-12-18T04:40:45;19.70;;;10.60;;
59872;SDS011;50750;51.636;4.948;2022-12-18T04:43:11;18.40;;;10.20;;
59872;SDS011;50750;51.636;4.948;2022-12-18T04:45:37;15.90;;;10.40;;
59872;SDS011;50750;51.636;4.948;2022-12-18T04:48:03;17.40;;;10.10;;
59872;SDS011;50750;51.636;4.948;2022-12-18T04:50:30;17.80;;;10.00;;
59872;SDS011;50750;51.636;4.948;2022-12-18T04:52:56;18.00;;;10.40;;
59872;SDS011;50750;51.636;4.948;2022-12-18T04:55:26;16.40;;;10.00;;
59872;SDS011;50750;51.636;4.948;2022-12-18T04:57:52;15.90;;;9.60;;
59872;SDS011;50750;51.636;4.948;2022-12-18T05:00:19;18.30;;;10.90;;
59872;SDS011;50750;51.636;4.948;2022-12-18T05:02:45;16.80;;;10.00;;
59872;SDS011;50750;51.636;4.948;2022-12-18T05:05:11;17.40;;;9.80;;
59872;SDS011;50750;51.636;4.948;2022-12-18T05:07:37;15.40;;;9.20;;
59872;SDS011;50750;51.636;4.948;2022-12-18T05:10:03;16.10;;;9.90;;
59872;SDS011;50750;51.636;4.948;2022-12-18T05:12:30;16.40;;;9.40;;
59872;SDS011;50750;51.636;4.948;2022-12-18T05:14:57;17.00;;;9.40;;
59872;SDS011;50750;51.636;4.948;2022-12-18T05:17:22;16.30;;;9.60;;
59872;SDS011;50750;51.636;4.948;2022-12-18T05:19:48;16.60;;;10.50;;
59872;SDS011;50750;51.636;4.948;2022-12-18T05:22:14;15.30;;;9.50;;
59872;SDS011;50750;51.636;4.948;2022-12-18T05:24:40;16.40;;;8.50;;
59872;SDS011;50750;51.636;4.948;2022-12-18T05:27:06;16.40;;;9.30;;
59872;SDS011;50750;51.636;4.948;2022-12-18T05:29:32;13.40;;;8.50;;
59872;SDS011;50750;51.636;4.948;2022-12-18T05:31:58;16.50;;;9.60;;
59872;SDS011;50750;51.636;4.948;2022-12-18T05:34:24;17.50;;;9.10;;
59872;SDS011;50750;51.636;4.948;2022-12-18T05:36:50;16.20;;;9.30;;
59872;SDS011;50750;51.636;4.948;2022-12-18T05:39:16;15.20;;;8.70;;
59872;SDS011;50750;51.636;4.948;2022-12-18T05:41:42;14.90;;;8.50;;
59872;SDS011;50750;51.636;4.948;2022-12-18T05:44:08;17.20;;;9.40;;
59872;SDS011;50750;51.636;4.948;2022-12-18T05:46:33;16.60;;;9.60;;
59872;SDS011;50750;51.636;4.948;2022-12-18T05:48:59;13.90;;;8.20;;
59872;SDS011;50750;51.636;4.948;2022-12-18T05:51:26;13.60;;;8.80;;
59872;SDS011;50750;51.636;4.948;2022-12-18T05:53:53;16.20;;;8.60;;
59872;SDS011;50750;51.636;4.948;2022-12-18T05:56:21;16.20;;;8.80;;
59872;SDS011;50750;51.636;4.948;2022-12-18T05:58:50;14.70;;;9.30;;
59872;SDS011;50750;51.636;4.948;2022-12-18T06:01:22;14.60;;;8.70;;
59872;SDS011;50750;51.636;4.948;2022-12-18T06:03:50;16.10;;;9.00;;
59872;SDS011;50750;51.636;4.948;2022-12-18T06:06:19;13.20;;;8.40;;
59872;SDS011;50750;51.636;4.948;2022-12-18T06:08:48;15.90;;;8.50;;
59872;SDS011;50750;51.636;4.948;2022-12-18T06:11:25;14.60;;;8.30;;
59872;SDS011;50750;51.636;4.948;2022-12-18T06:13:52;16.70;;;8.90;;
59872;SDS011;50750;51.636;4.948;2022-12-18T06:16:19;15.40;;;9.00;;
59872;SDS011;50750;51.636;4.948;2022-12-18T06:18:45;13.20;;;8.60;;
59872;SDS011;50750;51.636;4.948;2022-12-18T06:21:12;12.20;;;7.90;;
59872;SDS011;50750;51.636;4.948;2022-12-18T06:23:38;14.60;;;8.40;;
59872;SDS011;50750;51.636;4.948;2022-12-18T06:26:05;14.60;;;8.70;;
59872;SDS011;50750;51.636;4.948;2022-12-18T06:28:32;14.70;;;8.60;;
59872;SDS011;50750;51.636;4.948;2022-12-18T06:30:58;13.20;;;8.10;;
59872;SDS011;50750;51.636;4.948;2022-12-18T06:33:27;15.50;;;8.50;;
59872;SDS011;50750;51.636;4.948;2022-12-18T06:35:54;14.20;;;8.40;;
59872;SDS011;50750;51.636;4.948;2022-12-18T06:38:25;13.70;;;8.30;;
59872;SDS011;50750;51.636;4.948;2022-12-18T06:40:51;12.80;;;7.90;;
59872;SDS011;50750;51.636;4.948;2022-12-18T06:43:17;15.10;;;8.70;;
59872;SDS011;50750;51.636;4.948;2022-12-18T06:45:43;13.90;;;8.20;;
59872;SDS011;50750;51.636;4.948;2022-12-18T06:48:09;12.30;;;8.10;;
59872;SDS011;50750;51.636;4.948;2022-12-18T06:50:35;12.50;;;8.20;;
59872;SDS011;50750;51.636;4.948;2022-12-18T06:53:01;12.90;;;7.70;;
59872;SDS011;50750;51.636;4.948;2022-12-18T06:55:27;12.40;;;8.40;;
59872;SDS011;50750;51.636;4.948;2022-12-18T06:57:53;14.30;;;8.20;;
59872;SDS011;50750;51.636;4.948;2022-12-18T07:00:19;12.70;;;7.80;;
59872;SDS011;50750;51.636;4.948;2022-12-18T07:02:45;14.30;;;8.20;;
59872;SDS011;50750;51.636;4.948;2022-12-18T07:05:11;14.00;;;8.20;;
59872;SDS011;50750;51.636;4.948;2022-12-18T07:07:37;12.20;;;8.10;;
59872;SDS011;50750;51.636;4.948;2022-12-18T07:10:03;13.00;;;8.10;;
59872;SDS011;50750;51.636;4.948;2022-12-18T07:12:29;13.10;;;8.10;;
59872;SDS011;50750;51.636;4.948;2022-12-18T07:14:55;11.60;;;7.60;;
59872;SDS011;50750;51.636;4.948;2022-12-18T07:17:21;13.10;;;7.60;;
59872;SDS011;50750;51.636;4.948;2022-12-18T07:19:47;13.60;;;7.50;;
59872;SDS011;50750;51.636;4.948;2022-12-18T07:22:13;12.70;;;7.30;;
59872;SDS011;50750;51.636;4.948;2022-12-18T07:24:39;14.00;;;8.30;;
59872;SDS011;50750;51.636;4.948;2022-12-18T07:27:04;14.00;;;8.10;;
59872;SDS011;50750;51.636;4.948;2022-12-18T07:29:30;12.50;;;7.70;;
59872;SDS011;50750;51.636;4.948;2022-12-18T07:31:56;12.60;;;7.70;;
59872;SDS011;50750;51.636;4.948;2022-12-18T07:34:22;14.10;;;7.40;;
59872;SDS011;50750;51.636;4.948;2022-12-18T07:36:48;12.30;;;7.10;;
59872;SDS011;50750;51.636;4.948;2022-12-18T07:39:14;11.80;;;7.40;;
59872;SDS011;50750;51.636;4.948;2022-12-18T07:41:40;11.80;;;7.60;;
59872;SDS011;50750;51.636;4.948;2022-12-18T07:44:11;12.10;;;7.20;;
59872;SDS011;50750;51.636;4.948;2022-12-18T07:46:38;13.10;;;7.70;;
59872;SDS011;50750;51.636;4.948;2022-12-18T07:49:04;12.10;;;7.50;;
59872;SDS011;50750;51.636;4.948;2022-12-18T07:51:30;13.30;;;7.60;;
59872;SDS011;50750;51.636;4.948;2022-12-18T07:53:56;12.90;;;7.50;;
59872;SDS011;50750;51.636;4.948;2022-12-18T07:56:22;12.70;;;8.10;;
59872;SDS011;50750;51.636;4.948;2022-12-18T07:58:48;12.80;;;8.00;;
59872;SDS011;50750;51.636;4.948;2022-12-18T08:01:14;12.40;;;7.80;;
59872;SDS011;50750;51.636;4.948;2022-12-18T08:03:40;14.20;;;7.80;;
59872;SDS011;50750;51.636;4.948;2022-12-18T08:06:06;11.70;;;7.20;;
59872;SDS011;50750;51.636;4.948;2022-12-18T08:08:34;13.50;;;7.80;;
59872;SDS011;50750;51.636;4.948;2022-12-18T08:11:01;12.80;;;7.80;;
59872;SDS011;50750;51.636;4.948;2022-12-18T08:13:27;12.10;;;7.80;;
59872;SDS011;50750;51.636;4.948;2022-12-18T08:16:27;12.00;;;7.40;;
59872;SDS011;50750;51.636;4.948;2022-12-18T08:18:46;13.40;;;7.30;;
59872;SDS011;50750;51.636;4.948;2022-12-18T08:23:40;12.70;;;7.70;;
59872;SDS011;50750;51.636;4.948;2022-12-18T08:26:07;11.80;;;7.10;;
59872;SDS011;50750;51.636;4.948;2022-12-18T08:28:34;13.70;;;8.10;;
59872;SDS011;50750;51.636;4.948;2022-12-18T08:31:00;11.20;;;6.70;;
59872;SDS011;50750;51.636;4.948;2022-12-18T08:33:26;10.80;;;7.00;;
59872;SDS011;50750;51.636;4.948;2022-12-18T08:35:52;12.50;;;7.70;;
59872;SDS011;50750;51.636;4.948;2022-12-18T08:38:18;11.50;;;7.10;;
59872;SDS011;50750;51.636;4.948;2022-12-18T08:40:45;11.30;;;7.50;;
59872;SDS011;50750;51.636;4.948;2022-12-18T08:43:10;12.90;;;7.30;;
59872;SDS011;50750;51.636;4.948;2022-12-18T08:45:55;11.10;;;6.80;;
59872;SDS011;50750;51.636;4.948;2022-12-18T08:48:22;11.50;;;7.30;;
59872;SDS011;50750;51.636;4.948;2022-12-18T08:50:54;11.50;;;7.50;;
59872;SDS011;50750;51.636;4.948;2022-12-18T08:53:24;12.70;;;7.40;;
59872;SDS011;50750;51.636;4.948;2022-12-18T08:58:17;9.90;;;5.90;;
59872;SDS011;50750;51.636;4.948;2022-12-18T09:00:43;9.80;;;5.90;;
59872;SDS011;50750;51.636;4.948;2022-12-18T09:03:13;10.00;;;7.10;;
59872;SDS011;50750;51.636;4.948;2022-12-18T09:05:42;10.90;;;7.10;;
59872;SDS011;50750;51.636;4.948;2022-12-18T09:08:09;11.90;;;7.20;;
59872;SDS011;50750;51.636;4.948;2022-12-18T09:10:40;10.90;;;7.20;;
59872;SDS011;50750;51.636;4.948;2022-12-18T09:13:09;11.70;;;7.20;;
59872;SDS011;50750;51.636;4.948;2022-12-18T09:15:40;10.20;;;6.70;;
59872;SDS011;50750;51.636;4.948;2022-12-18T09:18:11;12.40;;;7.30;;
59872;SDS011;50750;51.636;4.948;2022-12-18T09:20:38;11.90;;;7.00;;
59872;SDS011;50750;51.636;4.948;2022-12-18T09:23:04;11.20;;;6.80;;
59872;SDS011;50750;51.636;4.948;2022-12-18T09:25:31;10.00;;;6.90;;
59872;SDS011;50750;51.636;4.948;2022-12-18T09:27:59;10.70;;;6.60;;
59872;SDS011;50750;51.636;4.948;2022-12-18T09:30:26;11.70;;;7.30;;
59872;SDS011;50750;51.636;4.948;2022-12-18T09:32:52;10.70;;;7.00;;
59872;SDS011;50750;51.636;4.948;2022-12-18T09:35:19;10.60;;;6.70;;
59872;SDS011;50750;51.636;4.948;2022-12-18T09:37:45;10.90;;;6.60;;
59872;SDS011;50750;51.636;4.948;2022-12-18T09:40:14;10.00;;;6.90;;
59872;SDS011;50750;51.636;4.948;2022-12-18T09:42:45;11.60;;;7.20;;
59872;SDS011;50750;51.636;4.948;2022-12-18T09:45:17;10.10;;;6.50;;
59872;SDS011;50750;51.636;4.948;2022-12-18T09:47:44;11.40;;;7.00;;
59872;SDS011;50750;51.636;4.948;2022-12-18T09:50:17;11.30;;;7.00;;
59872;SDS011;50750;51.636;4.948;2022-12-18T09:52:51;11.70;;;6.90;;
59872;SDS011;50750;51.636;4.948;2022-12-18T09:58:13;10.40;;;6.90;;
59872;SDS011;50750;51.636;4.948;2022-12-18T10:00:44;10.70;;;6.60;;
59872;SDS011;50750;51.636;4.948;2022-12-18T10:03:14;10.90;;;6.50;;
59872;SDS011;50750;51.636;4.948;2022-12-18T10:10:51;12.20;;;7.30;;
59872;SDS011;50750;51.636;4.948;2022-12-18T10:13:21;9.80;;;6.50;;
59872;SDS011;50750;51.636;4.948;2022-12-18T10:16:03;10.30;;;6.60;;
59872;SDS011;50750;51.636;4.948;2022-12-18T10:21:13;12.00;;;7.00;;
59872;SDS011;50750;51.636;4.948;2022-12-18T10:26:12;10.80;;;6.70;;
59872;SDS011;50750;51.636;4.948;2022-12-18T10:28:39;9.70;;;6.50;;
59872;SDS011;50750;51.636;4.948;2022-12-18T10:31:07;9.00;;;6.10;;
59872;SDS011;50750;51.636;4.948;2022-12-18T10:33:39;11.00;;;6.50;;
59872;SDS011;50750;51.636;4.948;2022-12-18T10:36:06;10.70;;;7.00;;
59872;SDS011;50750;51.636;4.948;2022-12-18T10:38:33;9.90;;;6.50;;
59872;SDS011;50750;51.636;4.948;2022-12-18T10:41:00;9.90;;;6.60;;
59872;SDS011;50750;51.636;4.948;2022-12-18T10:48:33;9.50;;;6.50;;
59872;SDS011;50750;51.636;4.948;2022-12-18T10:56:41;9.10;;;5.60;;
59872;SDS011;50750;51.636;4.948;2022-12-18T10:59:09;10.00;;;6.90;;
59872;SDS011;50750;51.636;4.948;2022-12-18T11:01:50;10.70;;;6.50;;
59872;SDS011;50750;51.636;4.948;2022-12-18T11:04:19;10.00;;;6.50;;
59872;SDS011;50750;51.636;4.948;2022-12-18T11:06:55;9.90;;;6.70;;
59872;SDS011;50750;51.636;4.948;2022-12-18T11:09:27;10.50;;;6.10;;
59872;SDS011;50750;51.636;4.948;2022-12-18T11:12:04;11.70;;;7.10;;
59872;SDS011;50750;51.636;4.948;2022-12-18T11:19:59;11.00;;;6.30;;
59872;SDS011;50750;51.636;4.948;2022-12-18T11:22:28;10.80;;;7.30;;
59872;SDS011;50750;51.636;4.948;2022-12-18T11:25:00;11.00;;;7.20;;
59872;SDS011;50750;51.636;4.948;2022-12-18T11:27:57;11.30;;;6.80;;
59872;SDS011;50750;51.636;4.948;2022-12-18T11:30:32;10.50;;;6.50;;
59872;SDS011;50750;51.636;4.948;2022-12-18T11:33:10;9.40;;;6.30;;
59872;SDS011;50750;51.636;4.948;2022-12-18T11:35:53;11.20;;;7.10;;
59872;SDS011;50750;51.636;4.948;2022-12-18T11:38:26;13.30;;;7.30;;
59872;SDS011;50750;51.636;4.948;2022-12-18T11:41:21;10.40;;;6.80;;
59872;SDS011;50750;51.636;4.948;2022-12-18T11:44:14;12.30;;;6.90;;
59872;SDS011;50750;51.636;4.948;2022-12-18T11:46:49;11.50;;;6.80;;
59872;SDS011;50750;51.636;4.948;2022-12-18T11:49:24;10.70;;;7.20;;
59872;SDS011;50750;51.636;4.948;2022-12-18T11:52:02;9.80;;;6.40;;
59872;SDS011;50750;51.636;4.948;2022-12-18T11:54:35;10.40;;;6.50;;
59872;SDS011;50750;51.636;4.948;2022-12-18T11:57:04;8.90;;;6.10;;
59872;SDS011;50750;51.636;4.948;2022-12-18T11:59:37;9.50;;;6.30;;
59872;SDS011;50750;51.636;4.948;2022-12-18T12:17:01;11.30;;;5.90;;
59872;SDS011;50750;51.636;4.948;2022-12-18T12:22:51;9.90;;;6.60;;
59872;SDS011;50750;51.636;4.948;2022-12-18T12:39:23;9.80;;;6.20;;
59872;SDS011;50750;51.636;4.948;2022-12-18T12:41:55;10.60;;;6.50;;
59872;SDS011;50750;51.636;4.948;2022-12-18T12:44:43;10.70;;;6.30;;
59872;SDS011;50750;51.636;4.948;2022-12-18T12:47:16;10.10;;;6.10;;
59872;SDS011;50750;51.636;4.948;2022-12-18T12:49:46;10.40;;;6.50;;
59872;SDS011;50750;51.636;4.948;2022-12-18T12:52:15;9.30;;;6.20;;
59872;SDS011;50750;51.636;4.948;2022-12-18T12:55:04;11.10;;;6.60;;
59872;SDS011;50750;51.636;4.948;2022-12-18T12:57:39;10.40;;;6.50;;
59872;SDS011;50750;51.636;4.948;2022-12-18T13:00:10;9.70;;;6.10;;
59872;SDS011;50750;51.636;4.948;2022-12-18T13:08:26;10.70;;;6.20;;
59872;SDS011;50750;51.636;4.948;2022-12-18T13:10:57;11.00;;;6.20;;
59872;SDS011;50750;51.636;4.948;2022-12-18T13:13:50;10.70;;;6.60;;
59872;SDS011;50750;51.636;4.948;2022-12-18T13:16:18;9.90;;;6.00;;
59872;SDS011;50750;51.636;4.948;2022-12-18T13:18:49;10.20;;;6.20;;
59872;SDS011;50750;51.636;4.948;2022-12-18T13:23:52;9.60;;;6.70;;
59872;SDS011;50750;51.636;4.948;2022-12-18T13:31:15;9.90;;;6.10;;
59872;SDS011;50750;51.636;4.948;2022-12-18T13:34:16;9.80;;;5.70;;
59872;SDS011;50750;51.636;4.948;2022-12-18T13:41:45;10.90;;;6.00;;
59872;SDS011;50750;51.636;4.948;2022-12-18T13:44:13;11.90;;;7.20;;
59872;SDS011;50750;51.636;4.948;2022-12-18T13:46:48;11.80;;;7.30;;
59872;SDS011;50750;51.636;4.948;2022-12-18T13:49:26;13.60;;;7.20;;
59872;SDS011;50750;51.636;4.948;2022-12-18T13:51:54;10.20;;;6.40;;
59872;SDS011;50750;51.636;4.948;2022-12-18T13:57:00;13.50;;;7.30;;
59872;SDS011;50750;51.636;4.948;2022-12-18T13:59:39;10.90;;;6.80;;
59872;SDS011;50750;51.636;4.948;2022-12-18T14:02:09;10.70;;;7.00;;
59872;SDS011;50750;51.636;4.948;2022-12-18T14:04:44;11.50;;;7.60;;
59872;SDS011;50750;51.636;4.948;2022-12-18T14:09:44;11.80;;;7.10;;
59872;SDS011;50750;51.636;4.948;2022-12-18T14:12:18;13.20;;;8.00;;
59872;SDS011;50750;51.636;4.948;2022-12-18T14:15:06;11.30;;;7.10;;
59872;SDS011;50750;51.636;4.948;2022-12-18T14:17:50;12.70;;;7.90;;
59872;SDS011;50750;51.636;4.948;2022-12-18T14:20:18;13.80;;;8.00;;
59872;SDS011;50750;51.636;4.948;2022-12-18T14:22:45;14.70;;;7.70;;
59872;SDS011;50750;51.636;4.948;2022-12-18T14:25:14;12.40;;;8.00;;
59872;SDS011;50750;51.636;4.948;2022-12-18T14:27:44;13.30;;;8.50;;
59872;SDS011;50750;51.636;4.948;2022-12-18T14:30:32;12.00;;;7.70;;
59872;SDS011;50750;51.636;4.948;2022-12-18T14:35:37;14.20;;;8.10;;
59872;SDS011;50750;51.636;4.948;2022-12-18T14:38:49;13.20;;;8.90;;
59872;SDS011;50750;51.636;4.948;2022-12-18T14:41:00;13.40;;;8.10;;
59872;SDS011;50750;51.636;4.948;2022-12-18T14:43:29;10.70;;;7.50;;
59872;SDS011;50750;51.636;4.948;2022-12-18T14:48:45;12.00;;;6.40;;
59872;SDS011;50750;51.636;4.948;2022-12-18T14:51:17;13.70;;;7.90;;
59872;SDS011;50750;51.636;4.948;2022-12-18T14:53:46;12.60;;;7.10;;
59872;SDS011;50750;51.636;4.948;2022-12-18T14:56:19;13.10;;;7.70;;
59872;SDS011;50750;51.636;4.948;2022-12-18T14:58:49;11.60;;;7.60;;
59872;SDS011;50750;51.636;4.948;2022-12-18T15:03:50;9.90;;;6.70;;
59872;SDS011;50750;51.636;4.948;2022-12-18T15:06:21;12.60;;;7.20;;
59872;SDS011;50750;51.636;4.948;2022-12-18T15:08:54;12.80;;;7.60;;
59872;SDS011;50750;51.636;4.948;2022-12-18T15:12:03;12.90;;;8.00;;
59872;SDS011;50750;51.636;4.948;2022-12-18T15:16:56;16.90;;;9.20;;
59872;SDS011;50750;51.636;4.948;2022-12-18T15:19:27;13.90;;;8.70;;
59872;SDS011;50750;51.636;4.948;2022-12-18T15:22:00;15.20;;;8.10;;
59872;SDS011;50750;51.636;4.948;2022-12-18T15:24:27;14.90;;;8.80;;
59872;SDS011;50750;51.636;4.948;2022-12-18T15:26:56;18.90;;;8.60;;
59872;SDS011;50750;51.636;4.948;2022-12-18T15:29:23;14.70;;;9.00;;
59872;SDS011;50750;51.636;4.948;2022-12-18T15:32:04;15.00;;;8.80;;
59872;SDS011;50750;51.636;4.948;2022-12-18T15:34:31;15.20;;;8.90;;
59872;SDS011;50750;51.636;4.948;2022-12-18T15:36:59;13.30;;;8.40;;
59872;SDS011;50750;51.636;4.948;2022-12-18T15:39:25;13.00;;;8.60;;
59872;SDS011;50750;51.636;4.948;2022-12-18T15:41:51;12.00;;;8.10;;
59872;SDS011;50750;51.636;4.948;2022-12-18T15:44:36;13.10;;;8.30;;
59872;SDS011;50750;51.636;4.948;2022-12-18T15:47:03;12.80;;;8.00;;
59872;SDS011;50750;51.636;4.948;2022-12-18T15:49:28;12.70;;;8.30;;
59872;SDS011;50750;51.636;4.948;2022-12-18T15:51:56;14.10;;;8.10;;
59872;SDS011;50750;51.636;4.948;2022-12-18T15:54:24;13.00;;;8.40;;
59872;SDS011;50750;51.636;4.948;2022-12-18T15:57:09;13.40;;;7.70;;
59872;SDS011;50750;51.636;4.948;2022-12-18T15:59:49;13.30;;;8.40;;
59872;SDS011;50750;51.636;4.948;2022-12-18T16:02:20;12.90;;;8.40;;
59872;SDS011;50750;51.636;4.948;2022-12-18T16:04:48;12.20;;;8.00;;
59872;SDS011;50750;51.636;4.948;2022-12-18T16:07:15;13.50;;;8.20;;
59872;SDS011;50750;51.636;4.948;2022-12-18T16:09:41;12.10;;;7.60;;
59872;SDS011;50750;51.636;4.948;2022-12-18T16:12:25;14.30;;;8.20;;
59872;SDS011;50750;51.636;4.948;2022-12-18T16:14:51;13.40;;;7.90;;
59872;SDS011;50750;51.636;4.948;2022-12-18T16:17:17;13.40;;;8.40;;
59872;SDS011;50750;51.636;4.948;2022-12-18T16:19:43;12.40;;;8.00;;
59872;SDS011;50750;51.636;4.948;2022-12-18T16:22:15;12.30;;;7.80;;
59872;SDS011;50750;51.636;4.948;2022-12-18T16:24:45;13.20;;;8.30;;
59872;SDS011;50750;51.636;4.948;2022-12-18T16:27:11;11.70;;;8.00;;
59872;SDS011;50750;51.636;4.948;2022-12-18T16:29:37;12.20;;;7.70;;
59872;SDS011;50750;51.636;4.948;2022-12-18T16:32:03;11.00;;;7.60;;
59872;SDS011;50750;51.636;4.948;2022-12-18T16:34:30;12.70;;;8.10;;
59872;SDS011;50750;51.636;4.948;2022-12-18T16:37:00;12.50;;;7.60;;
59872;SDS011;50750;51.636;4.948;2022-12-18T16:39:27;12.50;;;7.90;;
59872;SDS011;50750;51.636;4.948;2022-12-18T16:41:53;12.20;;;7.50;;
59872;SDS011;50750;51.636;4.948;2022-12-18T16:44:19;12.80;;;7.60;;
59872;SDS011;50750;51.636;4.948;2022-12-18T16:46:46;13.00;;;7.70;;
59872;SDS011;50750;51.636;4.948;2022-12-18T16:49:13;11.90;;;7.50;;
59872;SDS011;50750;51.636;4.948;2022-12-18T16:51:40;10.90;;;7.30;;
59872;SDS011;50750;51.636;4.948;2022-12-18T16:54:06;12.20;;;7.40;;
59872;SDS011;50750;51.636;4.948;2022-12-18T16:56:32;12.80;;;7.70;;
59872;SDS011;50750;51.636;4.948;2022-12-18T16:58:59;12.50;;;7.60;;
59872;SDS011;50750;51.636;4.948;2022-12-18T17:01:27;11.90;;;7.40;;
59872;SDS011;50750;51.636;4.948;2022-12-18T17:03:56;12.00;;;7.60;;